EMPK1: COTTONWOOD R AT EMPORIA

                                SHEF ID:       EMPK1     COTTONWOOD R AT EMPORIA
STATION TYPE:

STAGE RIV-FLOW BAT-LOAD
ft cfs volt
Ccp-Rev Ccp-Rev Ccp-Rev
(America/Chicago)
04/30 00:00 5.92 1578 12.73
04/30 01:00 5.86 1549 12.73
04/30 02:00 5.81 1524 12.73
04/30 03:00 5.76 1499 12.73
04/30 04:00 5.71 1475 12.65
04/30 05:00 5.67 1455 12.65
04/30 06:00 5.62 1431 12.57
04/30 07:00 5.58 1412 12.57
04/30 08:00 5.54 1392 13.05
04/30 09:00 5.49 1369 13.68
04/30 10:00 5.46 1354 13.68
04/30 11:00 5.42 1335 13.68
04/30 12:00 5.39 1321 13.53
04/30 13:00 5.35 1302 13.68
04/30 14:00 5.31 1284 13.84
04/30 15:00 5.27 1265 13.53
04/30 16:00 5.23 1247 13.53
04/30 17:00 5.20 1233 13.53
04/30 18:00 5.17 1219 13.53
04/30 19:00 5.14 1205 13.53
04/30 20:00 5.10 1187 13.37
04/30 21:00 5.07 1173 12.89
04/30 22:00 5.04 1160 12.81
04/30 23:00 5.02 1151 12.73
Data processed at Fri 01May2026 04:36 GMT

NOTICE: If you are parsing this page

Please convert to using our Data API. Starting early 2026 we will be migrating to: https://water.usace.army.mil with modern pages rendered in JavaScript. When this migration completes you will no longer be able to scrape this page! CWMSDataAPI (CDA)

Timeseries IDs (TSIDs)

TSIDs used from left to right in the data table
CEMP.Stage.Inst.1Hour.0.Ccp-Rev
CEMP.Flow.Inst.1Hour.0.Ccp-Rev
CEMP.Volt-Battery Load.Inst.1Hour.0.Ccp-Rev

                            

All information presented herein is the property of the government of the United States of America and may be revised or deleted at any time without prior notice. Dissemination of this information without the expressed written consent of the Public Affairs Office, Tulsa District U.S. Army Corps of Engineers is strictly prohibited. These data are gathered electronically and, as presented, have NOT undergone any form of quality control. These data are NOT guaranteed to be valid or correct.